createdAt,value
2018-09-04T00:00:29.031Z,49.9
2018-09-04T00:01:19.673Z,49.9
2018-09-04T00:02:09.437Z,49.9
2018-09-04T00:02:59.283Z,49.9
2018-09-04T00:03:49.366Z,49.9
2018-09-04T00:04:40.178Z,49.9
2018-09-04T00:05:30.004Z,49.9
2018-09-04T00:06:20.095Z,49.9
2018-09-04T00:07:09.855Z,49.9
2018-09-04T00:07:59.897Z,49.9
2018-09-04T00:08:50.488Z,49.9
2018-09-04T00:09:40.362Z,49.9
2018-09-04T00:10:30.460Z,49.9
2018-09-04T00:11:20.158Z,49.9
2018-09-04T00:12:10.522Z,49.9
2018-09-04T00:31:41.684Z,49.8
2018-09-04T00:32:32.125Z,49.8
2018-09-04T00:33:21.841Z,49.8
2018-09-04T00:34:12.569Z,49.8
2018-09-04T00:35:02.281Z,49.8
2018-09-04T00:35:52.593Z,49.8
2018-09-04T00:36:42.143Z,49.8
2018-09-04T00:37:31.881Z,49.8
2018-09-04T00:38:22.496Z,49.8
2018-09-04T00:39:12.853Z,49.8
2018-09-04T00:40:02.641Z,49.8
2018-09-04T00:40:52.697Z,49.8
2018-09-04T00:41:43.289Z,49.8
2018-09-04T00:42:32.861Z,49.8
2018-09-04T00:43:23.150Z,49.8
2018-09-04T00:44:12.043Z,49.8
2018-09-04T00:45:03.030Z,49.8
2018-09-04T00:45:53.073Z,49.8
2018-09-04T00:46:43.230Z,49.8
2018-09-04T00:47:33.217Z,49.8
2018-09-04T00:48:22.960Z,49.8
2018-09-04T00:49:13.076Z,49.8
2018-09-04T00:50:02.852Z,49.8
2018-09-04T00:50:53.164Z,49.8
2018-09-04T00:51:43.480Z,49.7
2018-09-04T00:52:32.820Z,49.7
2018-09-04T00:53:23.098Z,49.8
2018-09-04T00:54:13.430Z,49.8
2018-09-04T00:55:03.602Z,49.7
2018-09-04T00:55:53.339Z,49.7
2018-09-04T00:56:43.203Z,49.7
2018-09-04T00:57:33.937Z,49.7
2018-09-04T00:58:24.087Z,49.7
2018-09-04T00:59:13.560Z,49.7
2018-09-04T01:00:04.292Z,49.7
2018-09-04T01:00:54.237Z,49.7
2018-09-04T01:01:44.307Z,49.7
2018-09-04T01:02:34.372Z,49.7
2018-09-04T01:03:24.425Z,49.7
2018-09-04T01:04:14.199Z,49.7
2018-09-04T01:05:04.839Z,49.7
2018-09-04T01:05:54.630Z,49.7
2018-09-04T01:06:44.689Z,49.6
2018-09-04T01:07:35.400Z,49.7
2018-09-04T01:08:24.255Z,49.7
2018-09-04T01:09:14.641Z,49.6
2018-09-04T01:10:05.489Z,49.6
2018-09-04T01:10:54.719Z,49.6
2018-09-04T01:11:45.097Z,49.6
2018-09-04T01:12:34.821Z,49.6
2018-09-04T01:13:24.949Z,49.6
2018-09-04T01:14:15.574Z,49.6
2018-09-04T01:15:05.348Z,49.6
2018-09-04T01:15:54.536Z,49.6
2018-09-04T01:16:45.166Z,49.6
2018-09-04T01:17:35.781Z,49.6
2018-09-04T01:18:26.159Z,49.6
2018-09-04T01:19:15.656Z,49.6
2018-09-04T01:20:05.739Z,49.6
2018-09-04T01:20:55.766Z,49.6
2018-09-04T01:21:46.149Z,49.6
2018-09-04T01:22:36.531Z,49.6
2018-09-04T01:23:25.711Z,49.6
2018-09-04T01:24:16.046Z,49.6
2018-09-04T01:25:06.656Z,49.6
2018-09-04T01:25:55.585Z,49.6
2018-09-04T01:26:45.651Z,49.6
2018-09-04T01:27:36.265Z,49.6
2018-09-04T01:28:26.699Z,49.6
2018-09-04T01:29:16.733Z,49.6
2018-09-04T01:30:07.059Z,49.6
2018-09-04T01:30:56.285Z,49.6
2018-09-04T01:31:46.368Z,49.6
2018-09-04T01:32:36.772Z,49.6
2018-09-04T01:33:27.070Z,49.6
2018-09-04T01:34:16.822Z,49.6
2018-09-04T01:35:07.163Z,49.5
2018-09-04T01:35:56.947Z,49.5
2018-09-04T01:36:46.440Z,49.5
2018-09-04T01:37:37.088Z,49.6
2018-09-04T01:38:26.845Z,49.5
2018-09-04T01:39:17.717Z,49.5
2018-09-04T01:40:07.585Z,49.5
2018-09-04T01:40:57.076Z,49.5
2018-09-04T01:41:47.115Z,49.5
2018-09-04T01:42:37.532Z,49.5
2018-09-04T01:43:26.939Z,49.4
2018-09-04T01:44:17.366Z,49.5
2018-09-04T01:45:07.374Z,49.5
2018-09-04T01:45:57.704Z,49.4
2018-09-04T01:46:48.055Z,49.4
2018-09-04T01:47:37.556Z,49.4
2018-09-04T01:48:28.184Z,49.4
2018-09-04T01:49:17.666Z,49.4
2018-09-04T01:50:08.059Z,49.4
2018-09-04T01:50:58.350Z,49.5
2018-09-04T01:51:48.173Z,49.4
2018-09-04T01:52:38.524Z,49.4
2018-09-04T01:53:28.567Z,49.4
2018-09-04T01:54:18.604Z,49.4
2018-09-04T01:55:08.147Z,49.4
2018-09-04T01:55:58.193Z,49.4
2018-09-04T01:56:48.564Z,49.4
2018-09-04T01:57:37.758Z,49.4
2018-09-04T01:58:29.256Z,49.4
2018-09-04T01:59:18.458Z,49.4
2018-09-04T02:00:07.676Z,49.4
2018-09-04T02:00:58.851Z,49.4
2018-09-04T02:01:48.363Z,49.4
2018-09-04T02:02:39.010Z,49.4
2018-09-04T02:03:28.851Z,49.4
2018-09-04T02:04:18.548Z,49.4
2018-09-04T02:05:09.496Z,49.4
2018-09-04T02:05:59.555Z,49.4
2018-09-04T02:06:49.336Z,49.4
2018-09-04T02:07:39.400Z,49.4
2018-09-04T02:08:28.830Z,49.4
2018-09-04T02:09:19.506Z,49.4
2018-09-04T02:10:09.598Z,49.4
2018-09-04T02:10:59.955Z,49.4
2018-09-04T02:11:49.978Z,49.4
2018-09-04T02:12:39.482Z,49.4
2018-09-04T02:13:30.095Z,49.4
2018-09-04T02:14:19.973Z,49.3
2018-09-04T02:15:09.662Z,49.3
2018-09-04T02:16:00.348Z,49.3
2018-09-04T02:16:50.662Z,49.3
2018-09-04T02:17:40.165Z,49.3
2018-09-04T02:18:29.649Z,49.3
2018-09-04T02:19:20.292Z,49.3
2018-09-04T02:20:10.340Z,49.3
2018-09-04T02:21:00.473Z,49.3
2018-09-04T02:21:49.905Z,49.3
2018-09-04T02:22:39.987Z,49.3
2018-09-04T02:23:30.312Z,49.3
2018-09-04T02:24:20.392Z,49.3
2018-09-04T02:25:10.787Z,49.3
2018-09-04T02:26:01.130Z,49.3
2018-09-04T02:26:50.572Z,49.3
2018-09-04T02:27:40.952Z,49.3
2018-09-04T02:28:31.008Z,49.3
2018-09-04T02:29:21.324Z,49.3
2018-09-04T02:30:10.862Z,49.3
2018-09-04T02:31:00.912Z,49.3
2018-09-04T02:31:50.985Z,49.3
2018-09-04T02:32:41.071Z,49.3
2018-09-04T02:33:31.422Z,49.3
2018-09-04T02:34:21.404Z,49.3
2018-09-04T02:35:11.576Z,49.3
2018-09-04T02:36:01.349Z,49.3
2018-09-04T02:36:52.009Z,49.3
2018-09-04T02:37:40.882Z,49.3
2018-09-04T02:38:31.789Z,49.3
2018-09-04T02:39:21.826Z,49.3
2018-09-04T02:40:11.638Z,49.3
2018-09-04T02:41:01.989Z,49.3
2018-09-04T02:41:52.049Z,49.2
2018-09-04T02:42:41.818Z,49.2
2018-09-04T02:43:32.181Z,49.2
2018-09-04T02:44:22.491Z,49.2
2018-09-04T02:45:12.299Z,49.2
2018-09-04T02:46:02.075Z,49.2
2018-09-04T02:46:52.716Z,49.2
2018-09-04T02:47:42.206Z,49.2
2018-09-04T02:48:32.863Z,49.2
2018-09-04T02:49:22.610Z,49.2
2018-09-04T02:50:12.883Z,49.2
2018-09-04T02:51:02.723Z,49.1
2018-09-04T02:51:52.790Z,49.1
2018-09-04T02:52:43.421Z,49.2
2018-09-04T02:53:32.356Z,49.1
2018-09-04T02:54:22.779Z,49.2
2018-09-04T02:55:13.275Z,49.2
2018-09-04T02:56:03.115Z,49.1
2018-09-04T02:56:53.188Z,49.1
2018-09-04T02:57:42.978Z,49.1
2018-09-04T02:58:32.737Z,49.1
2018-09-04T02:59:23.400Z,49.1
2018-09-04T03:00:14.214Z,49.1
2018-09-04T03:01:03.815Z,49.1
2018-09-04T03:01:53.328Z,49.1
2018-09-04T03:02:43.358Z,49.1
2018-09-04T03:03:33.720Z,49.1
2018-09-04T03:04:24.052Z,49.1
2018-09-04T03:05:14.079Z,49.1
2018-09-04T03:06:03.620Z,49.1
2018-09-04T03:06:53.957Z,49.1
2018-09-04T03:07:44.029Z,49.1
2018-09-04T03:08:33.808Z,49.1
2018-09-04T03:09:23.861Z,49.1
2018-09-04T03:10:13.895Z,49.1
2018-09-04T03:11:04.554Z,49.1
2018-09-04T03:11:54.689Z,49.1
2018-09-04T03:12:44.147Z,49.1
2018-09-04T03:13:35.926Z,49.1
2018-09-04T03:14:24.570Z,49.1
2018-09-04T03:15:14.339Z,49
2018-09-04T03:16:04.107Z,49.1
2018-09-04T03:16:54.179Z,49.1
2018-09-04T03:17:44.816Z,49
2018-09-04T03:18:34.868Z,49
2018-09-04T03:19:24.649Z,49
2018-09-04T03:20:15.256Z,49
2018-09-04T03:21:04.765Z,49
2018-09-04T03:21:54.945Z,49
2018-09-04T03:22:45.216Z,49
2018-09-04T03:23:34.968Z,49
2018-09-04T03:24:25.655Z,49
2018-09-04T03:25:16.216Z,49
2018-09-04T03:26:05.216Z,49
2018-09-04T03:26:55.508Z,49
2018-09-04T03:27:45.315Z,49
2018-09-04T03:28:35.353Z,48.9
2018-09-04T03:29:25.448Z,49
2018-09-04T03:30:16.083Z,48.9
2018-09-04T03:31:06.487Z,48.9
2018-09-04T03:31:55.938Z,48.9
2018-09-04T03:32:45.400Z,48.9
2018-09-04T03:33:35.446Z,48.9
2018-09-04T03:34:26.655Z,48.9
2018-09-04T03:35:16.402Z,48.9
2018-09-04T03:36:05.868Z,48.9
2018-09-04T03:36:56.267Z,48.9
2018-09-04T03:37:46.052Z,48.9
2018-09-04T03:38:36.667Z,48.9
2018-09-04T03:39:26.219Z,48.9
2018-09-04T03:40:16.529Z,48.9
2018-09-04T03:41:06.526Z,48.9
2018-09-04T03:41:56.488Z,48.9
2018-09-04T03:42:46.777Z,48.9
2018-09-04T03:43:37.085Z,48.9
2018-09-04T03:44:26.970Z,48.9
2018-09-04T03:45:16.955Z,48.9
2018-09-04T03:46:06.485Z,48.9
2018-09-04T03:46:57.287Z,48.9
2018-09-04T03:47:46.839Z,48.9
2018-09-04T03:48:37.487Z,48.9
2018-09-04T03:49:27.190Z,48.9
2018-09-04T03:50:17.293Z,48.9
2018-09-04T03:51:06.541Z,48.9
2018-09-04T03:51:57.441Z,48.8
2018-09-04T03:52:47.792Z,48.8
2018-09-04T03:53:37.267Z,48.8
2018-09-04T03:54:27.934Z,48.8
2018-09-04T03:55:17.406Z,48.8
2018-09-04T03:56:08.324Z,48.8
2018-09-04T03:56:58.081Z,48.8
2018-09-04T03:57:47.914Z,48.8
2018-09-04T03:58:37.984Z,48.8
2018-09-04T03:59:28.346Z,48.8
2018-09-04T04:00:17.188Z,48.8
2018-09-04T04:01:07.954Z,48.8
2018-09-04T04:01:57.964Z,48.8
2018-09-04T04:02:47.696Z,48.8
2018-09-04T04:03:37.781Z,48.8
2018-09-04T04:04:28.728Z,48.8
2018-09-04T04:05:18.454Z,48.8
2018-09-04T04:06:08.190Z,48.8
2018-09-04T04:06:58.568Z,48.8
2018-09-04T04:07:48.395Z,48.8
2018-09-04T04:08:38.426Z,48.8
2018-09-04T04:09:28.800Z,48.8
2018-09-04T04:10:18.296Z,48.8
2018-09-04T04:11:09.204Z,48.8
2018-09-04T04:11:59.725Z,48.8
2018-09-04T04:12:48.756Z,48.8
2018-09-04T04:13:38.826Z,48.8
2018-09-04T04:14:29.501Z,48.8
2018-09-04T04:15:18.945Z,48.8
2018-09-04T04:16:09.817Z,48.8
2018-09-04T04:16:59.025Z,48.8
2018-09-04T04:17:49.125Z,48.8
2018-09-04T04:18:39.759Z,48.7
2018-09-04T04:19:29.842Z,48.7
2018-09-04T04:20:20.185Z,48.7
2018-09-04T04:21:09.677Z,48.7
2018-09-04T04:22:00.034Z,48.7
2018-09-04T04:22:50.110Z,48.7
2018-09-04T04:23:39.602Z,48.7
2018-09-04T04:24:30.233Z,48.7
2018-09-04T04:25:19.727Z,48.7
2018-09-04T04:26:10.112Z,48.7
2018-09-04T04:27:00.371Z,48.7
2018-09-04T04:27:50.214Z,48.7
2018-09-04T04:28:40.273Z,48.7
2018-09-04T04:29:29.722Z,48.6
2018-09-04T04:30:20.666Z,48.7
2018-09-04T04:31:10.686Z,48.6
2018-09-04T04:32:00.571Z,48.6
2018-09-04T04:32:49.933Z,48.6
2018-09-04T04:33:40.951Z,48.6
2018-09-04T04:34:30.425Z,48.6
2018-09-04T04:35:21.037Z,48.6
2018-09-04T04:36:11.124Z,48.6
2018-09-04T04:37:00.334Z,48.6
2018-09-04T04:37:51.246Z,48.6
2018-09-04T04:38:41.064Z,48.6
2018-09-04T04:39:30.823Z,48.6
2018-09-04T04:40:20.881Z,48.6
2018-09-04T04:41:11.570Z,48.6
2018-09-04T04:42:01.031Z,48.6
2018-09-04T04:42:50.766Z,48.6
2018-09-04T05:00:30.856Z,48.5
2018-09-04T05:01:19.588Z,48.5
2018-09-04T05:02:10.249Z,48.5
2018-09-04T05:03:00.554Z,48.5
2018-09-04T05:03:50.107Z,48.5
2018-09-04T05:04:40.444Z,48.5
2018-09-04T05:05:30.857Z,48.4
2018-09-04T05:06:20.859Z,48.4
2018-09-04T05:07:10.341Z,48.4
2018-09-04T05:08:00.681Z,48.4
2018-09-04T05:08:50.436Z,48.4
2018-09-04T05:09:40.819Z,48.4
2018-09-04T05:10:30.291Z,48.4
2018-09-04T05:11:22.061Z,48.4
2018-09-04T05:12:11.004Z,48.4
2018-09-04T05:13:00.795Z,48.4
2018-09-04T05:13:50.597Z,48.4
2018-09-04T05:14:41.236Z,48.4
2018-09-04T05:15:30.989Z,48.4
2018-09-04T05:16:21.079Z,48.4
2018-09-04T05:17:10.533Z,48.4
2018-09-04T05:18:01.186Z,48.4
2018-09-04T05:18:51.006Z,48.4
2018-09-04T05:19:41.116Z,48.4
2018-09-04T05:20:31.076Z,48.4
2018-09-04T05:21:21.414Z,48.4
2018-09-04T05:22:11.296Z,48.4
2018-09-04T05:23:01.856Z,48.4
2018-09-04T05:23:51.392Z,48.4
2018-09-04T05:24:41.396Z,48.4
2018-09-04T05:25:32.025Z,48.3
2018-09-04T05:26:22.088Z,48.3
2018-09-04T05:27:11.363Z,48.4
2018-09-04T05:28:00.841Z,48.4
2018-09-04T05:28:52.805Z,48.4
2018-09-04T05:29:42.375Z,48.4
2018-09-04T05:30:32.145Z,48.3
2018-09-04T05:31:21.980Z,48.3
2018-09-04T05:32:11.762Z,48.3
2018-09-04T05:33:01.544Z,48.3
2018-09-04T05:33:52.455Z,48.3
2018-09-04T05:34:42.157Z,48.3
2018-09-04T05:35:32.514Z,48.3
2018-09-04T05:36:22.829Z,48.3
2018-09-04T05:37:12.062Z,48.3
2018-09-04T05:38:02.707Z,48.3
2018-09-04T05:38:53.315Z,48.3
2018-09-04T05:39:42.537Z,48.3
2018-09-04T05:40:32.611Z,48.3
2018-09-04T05:41:22.107Z,48.3
2018-09-04T05:42:13.301Z,48.3
2018-09-04T05:43:03.414Z,48.3
2018-09-04T05:43:53.719Z,48.3
2018-09-04T05:44:43.016Z,48.3
2018-09-04T05:45:33.647Z,48.3
2018-09-04T05:46:23.358Z,48.3
2018-09-04T05:47:13.125Z,48.3
2018-09-04T05:48:03.196Z,48.3
2018-09-04T05:48:53.263Z,48.3
2018-09-04T05:49:43.553Z,48.2
2018-09-04T05:50:33.657Z,48.2
2018-09-04T05:51:23.188Z,48.2
2018-09-04T05:52:13.100Z,48.2
2018-09-04T05:53:04.152Z,48.2
2018-09-04T05:53:53.922Z,48.2
2018-09-04T05:54:43.977Z,48.2
2018-09-04T05:55:34.035Z,48.2
2018-09-04T05:56:24.116Z,48.2
2018-09-04T05:57:13.883Z,48.2
2018-09-04T05:58:04.071Z,48.2
2018-09-04T05:58:54.045Z,48.2
2018-09-04T05:59:44.388Z,48.1
2018-09-04T06:00:34.458Z,48.1
2018-09-04T06:01:24.800Z,48.1
2018-09-04T06:02:15.161Z,48.1
2018-09-04T06:03:04.624Z,48.1
2018-09-04T06:03:55.001Z,48.1
2018-09-04T06:04:44.762Z,48.1
2018-09-04T06:05:35.122Z,48.1
2018-09-04T06:06:24.593Z,48.1
2018-09-04T06:07:14.684Z,48.1
2018-09-04T06:08:05.314Z,48.1
2018-09-04T06:08:54.809Z,48.1
2018-09-04T06:09:44.878Z,48.1
2018-09-04T06:10:35.186Z,48.1
2018-09-04T06:11:25.553Z,48.1
2018-09-04T06:12:15.291Z,48.1
2018-09-04T06:13:05.710Z,48.1
2018-09-04T06:13:55.583Z,48.1
2018-09-04T06:14:46.051Z,48.1
2018-09-04T06:15:35.614Z,48.1
2018-09-04T06:16:24.597Z,48.1
2018-09-04T06:17:15.728Z,48.1
2018-09-04T06:18:05.488Z,48.1
2018-09-04T06:18:55.614Z,48.1
2018-09-04T06:19:46.193Z,48.1
2018-09-04T06:20:36.015Z,48.1
2018-09-04T06:21:26.042Z,48.1
2018-09-04T06:22:15.813Z,48.1
2018-09-04T06:23:06.468Z,48
2018-09-04T06:23:55.956Z,48.1
2018-09-04T06:24:46.580Z,48
2018-09-04T06:25:36.691Z,48
2018-09-04T06:26:26.731Z,48
2018-09-04T06:27:16.211Z,48
2018-09-04T06:28:06.831Z,48
2018-09-04T06:28:56.388Z,48
2018-09-04T06:29:46.516Z,48
2018-09-04T06:30:36.558Z,48
2018-09-04T06:31:27.371Z,48
2018-09-04T06:32:17.210Z,48
2018-09-04T06:33:07.620Z,48
2018-09-04T06:33:56.852Z,48
2018-09-04T06:34:46.220Z,47.9
2018-09-04T06:35:37.790Z,48
2018-09-04T06:36:27.634Z,47.9
2018-09-04T06:37:17.528Z,47.9
2018-09-04T06:38:07.640Z,47.9
2018-09-04T06:38:57.451Z,47.9
2018-09-04T06:39:47.193Z,47.9
2018-09-04T06:40:36.874Z,47.9
2018-09-04T06:41:27.384Z,47.9
2018-09-04T06:42:17.928Z,47.9
2018-09-04T06:43:07.421Z,47.9
2018-09-04T06:43:57.289Z,47.9
2018-09-04T06:44:47.836Z,47.9
2018-09-04T06:45:38.246Z,47.9
2018-09-04T06:46:28.814Z,47.9
2018-09-04T06:47:18.071Z,47.9
2018-09-04T06:48:08.401Z,47.9
2018-09-04T06:48:57.931Z,47.9
2018-09-04T06:49:48.258Z,47.9
2018-09-04T06:50:38.566Z,47.9
2018-09-04T06:51:28.628Z,47.9
2018-09-04T06:52:18.126Z,47.9
2018-09-04T06:53:09.015Z,47.9
2018-09-04T06:53:58.540Z,47.9
2018-09-04T06:54:48.803Z,47.9
2018-09-04T06:55:38.380Z,47.9
2018-09-04T06:56:28.502Z,47.9
2018-09-04T06:57:19.098Z,47.9
2018-09-04T06:58:08.289Z,47.9
2018-09-04T06:58:58.942Z,47.8
2018-09-04T06:59:49.552Z,47.8
2018-09-04T07:00:39.054Z,47.8
2018-09-04T07:01:28.860Z,47.8
2018-09-04T07:02:18.407Z,47.8
2018-09-04T07:03:09.249Z,47.8
2018-09-04T07:03:59.651Z,47.8
2018-09-04T07:04:49.720Z,47.8
2018-09-04T07:05:38.944Z,47.8
2018-09-04T07:06:29.048Z,47.8
2018-09-04T07:07:19.345Z,47.8
2018-09-04T07:08:09.150Z,47.8
2018-09-04T07:08:59.509Z,47.8
2018-09-04T07:09:49.634Z,47.8
2018-09-04T07:10:39.344Z,47.8
2018-09-04T07:11:29.662Z,47.8
2018-09-04T07:12:19.476Z,47.8
2018-09-04T07:13:09.857Z,47.8
2018-09-04T07:14:00.364Z,47.8
2018-09-04T07:14:50.444Z,47.8
2018-09-04T07:15:40.287Z,47.8
2018-09-04T07:16:30.543Z,47.8
2018-09-04T07:17:20.658Z,47.8
2018-09-04T07:18:10.721Z,47.8
2018-09-04T07:19:00.824Z,47.8
2018-09-04T07:19:50.601Z,47.8
2018-09-04T07:20:40.604Z,47.7
2018-09-04T07:21:30.963Z,47.8
2018-09-04T07:22:21.016Z,47.7
2018-09-04T07:23:10.811Z,47.7
2018-09-04T07:24:01.661Z,47.7
2018-09-04T07:24:51.283Z,47.7
2018-09-04T07:25:41.003Z,47.7
2018-09-04T07:26:31.593Z,47.7
2018-09-04T07:27:20.634Z,47.7
2018-09-04T07:28:11.037Z,47.7
2018-09-04T07:29:00.711Z,47.7
2018-09-04T07:29:51.573Z,47.6
2018-09-04T07:30:40.799Z,47.7
2018-09-04T07:31:31.488Z,47.7
2018-09-04T07:32:21.512Z,47.7
2018-09-04T07:33:11.852Z,47.6
2018-09-04T07:34:01.651Z,47.6
2018-09-04T07:34:51.977Z,47.6
2018-09-04T07:35:42.058Z,47.6
2018-09-04T07:36:32.353Z,47.6
2018-09-04T07:37:21.597Z,47.6
2018-09-04T07:38:12.245Z,47.6
2018-09-04T07:39:02.303Z,47.6
2018-09-04T07:39:52.378Z,47.6
2018-09-04T07:40:42.472Z,47.6
2018-09-04T07:41:32.573Z,47.6
2018-09-04T07:42:22.007Z,47.6
2018-09-04T07:43:12.360Z,47.6
2018-09-04T07:44:01.895Z,47.6
2018-09-04T07:44:52.154Z,47.6
2018-09-04T07:45:42.534Z,47.6
2018-09-04T07:46:32.630Z,47.6
2018-09-04T07:47:22.674Z,47.6
2018-09-04T07:48:13.065Z,47.6
2018-09-04T07:49:02.551Z,47.6
2018-09-04T07:49:53.199Z,47.6
2018-09-04T07:50:42.887Z,47.6
2018-09-04T07:51:32.958Z,47.6
2018-09-04T07:52:23.357Z,47.6
2018-09-04T07:53:13.119Z,47.6
2018-09-04T07:54:03.134Z,47.6
2018-09-04T07:54:52.964Z,47.5
2018-09-04T07:55:43.581Z,47.5
2018-09-04T07:56:33.654Z,47.5
2018-09-04T07:57:23.168Z,47.5
2018-09-04T07:58:13.783Z,47.5
2018-09-04T07:59:03.858Z,47.5
2018-09-04T07:59:53.321Z,47.5
2018-09-04T08:00:43.392Z,47.5
2018-09-04T08:01:34.029Z,47.5
2018-09-04T08:02:23.526Z,47.6
2018-09-04T08:03:13.081Z,47.5
2018-09-04T08:04:03.453Z,47.4
2018-09-04T08:04:53.228Z,47.3
2018-09-04T08:05:42.987Z,47.3
2018-09-04T08:06:33.929Z,47.2
2018-09-04T08:07:24.255Z,47.1
2018-09-04T08:08:13.482Z,47.1
2018-09-04T08:09:02.978Z,47.1
2018-09-04T08:09:53.318Z,47.1
2018-09-04T08:10:43.980Z,47.1
2018-09-04T08:11:34.527Z,47.1
2018-09-04T08:12:25.129Z,47.1
2018-09-04T08:13:14.957Z,47.1
2018-09-04T08:14:05.011Z,47.1
2018-09-04T08:14:54.248Z,47.1
2018-09-04T08:15:45.150Z,47
2018-09-04T08:16:35.220Z,47
2018-09-04T08:17:24.919Z,47.1
2018-09-04T08:18:15.012Z,47.1
2018-09-04T08:19:05.419Z,47.1
2018-09-04T08:19:54.884Z,47.1
2018-09-04T08:20:46.084Z,47.1
2018-09-04T08:21:35.614Z,47.1
2018-09-04T08:22:25.080Z,47.1
2018-09-04T08:23:15.230Z,47.1
2018-09-04T09:15:00.593Z,46.8
2018-09-04T09:15:50.457Z,46.8
2018-09-04T09:16:40.443Z,46.8
2018-09-04T09:17:30.276Z,46.8
2018-09-04T09:18:21.109Z,46.8
2018-09-04T09:19:10.673Z,46.8
2018-09-04T09:20:00.196Z,46.8
2018-09-04T09:20:50.479Z,46.8
2018-09-04T09:21:40.581Z,46.8
2018-09-04T09:22:30.879Z,46.8
2018-09-04T09:23:21.256Z,46.8
2018-09-04T09:24:10.748Z,46.8
2018-09-04T09:25:01.339Z,46.8
2018-09-04T09:25:51.392Z,46.7
2018-09-04T09:26:41.454Z,46.7
2018-09-04T09:27:30.744Z,46.7
2018-09-04T09:28:21.060Z,46.7
2018-09-04T09:29:11.081Z,46.7
2018-09-04T09:30:01.498Z,46.7
2018-09-04T09:30:51.543Z,46.7
2018-09-04T09:31:41.626Z,46.7
2018-09-04T09:32:31.136Z,46.7
2018-09-04T09:33:21.741Z,46.7
2018-09-04T09:34:12.038Z,46.7
2018-09-04T09:35:01.868Z,46.7
2018-09-04T09:35:51.394Z,46.7
2018-09-04T09:36:42.661Z,46.6
2018-09-04T09:37:32.082Z,46.7
2018-09-04T09:38:21.835Z,46.6
2018-09-04T09:39:12.167Z,46.7
2018-09-04T09:40:02.021Z,46.6
2018-09-04T09:40:51.178Z,46.6
2018-09-04T09:41:42.075Z,46.6
2018-09-04T09:42:32.177Z,46.6
2018-09-04T09:43:22.503Z,46.6
2018-09-04T09:44:12.115Z,46.6
2018-09-04T09:45:02.917Z,46.6
2018-09-04T09:45:52.762Z,46.6
2018-09-04T09:46:41.935Z,46.6
2018-09-04T09:47:33.095Z,46.6
2018-09-04T09:48:22.625Z,46.6
2018-09-04T09:49:13.015Z,46.6
2018-09-04T09:50:02.287Z,46.6
2018-09-04T09:50:53.827Z,46.6
2018-09-04T09:51:43.174Z,46.6
2018-09-04T09:52:33.630Z,46.6
2018-09-04T09:53:26.148Z,46.6
2018-09-04T09:54:13.375Z,46.6
2018-09-04T09:55:03.452Z,46.6
2018-09-04T09:55:53.609Z,46.6
2018-09-04T09:56:43.426Z,46.6
2018-09-04T09:57:33.057Z,46.5
2018-09-04T09:58:22.394Z,46.6
2018-09-04T09:59:13.757Z,46.6
2018-09-04T10:00:04.618Z,46.6
2018-09-04T10:00:54.240Z,46.5
2018-09-04T10:01:43.850Z,46.5
2018-09-04T10:02:34.172Z,46.6
2018-09-04T10:03:24.104Z,46.5
2018-09-04T10:04:15.196Z,46.5
2018-09-04T10:05:04.197Z,46.6
2018-09-04T10:05:53.945Z,46.5
2018-09-04T10:06:44.354Z,46.5
2018-09-04T10:07:35.595Z,46.5
2018-09-04T10:08:24.481Z,46.5
2018-09-04T10:09:14.031Z,46.5
2018-09-04T10:10:05.219Z,46.5
2018-09-04T10:10:54.094Z,46.5
2018-09-04T10:11:44.414Z,46.5
2018-09-04T10:12:34.452Z,46.5
2018-09-04T10:13:24.774Z,46.5
2018-09-04T10:14:14.854Z,46.4
2018-09-04T10:15:20.379Z,46.4
2018-09-04T10:15:54.724Z,46.4
2018-09-04T10:16:45.031Z,46.4
2018-09-04T10:17:35.144Z,46.4
2018-09-04T10:18:24.893Z,46.4
2018-09-04T10:19:14.998Z,46.4
2018-09-04T10:20:05.414Z,46.4
2018-09-04T10:20:55.923Z,46.4
2018-09-04T10:21:45.174Z,46.4
2018-09-04T10:22:35.233Z,46.4
2018-09-04T10:23:25.351Z,46.4
2018-09-04T10:24:15.158Z,46.4
2018-09-04T10:25:05.245Z,46.4
2018-09-04T10:25:56.102Z,46.4
2018-09-04T10:26:46.083Z,46.4
2018-09-04T10:27:36.155Z,46.4
2018-09-04T10:28:26.034Z,46.4
2018-09-04T10:29:30.405Z,46.4
2018-09-04T10:30:05.855Z,46.4
2018-09-04T10:30:55.587Z,46.4
2018-09-04T10:31:45.605Z,46.4
2018-09-04T10:32:36.261Z,46.4
2018-09-04T10:33:25.552Z,46.4
2018-09-04T10:34:16.144Z,46.4
2018-09-04T10:35:05.934Z,46.4
2018-09-04T10:35:56.491Z,46.4
2018-09-04T10:36:46.877Z,46.4
2018-09-04T10:37:37.794Z,46.3
2018-09-04T10:38:27.889Z,46.3
2018-09-04T16:15:52.061Z,44.6
2018-09-04T16:16:42.103Z,44.6
2018-09-04T16:17:32.466Z,44.6
2018-09-04T16:18:22.281Z,44.6
2018-09-04T16:19:12.666Z,44.6
2018-09-04T16:20:03.423Z,44.6
2018-09-04T16:20:54.201Z,44.6
2018-09-04T16:21:43.682Z,44.6
2018-09-04T16:22:33.221Z,44.6
2018-09-04T16:23:23.030Z,44.6
2018-09-04T16:24:13.288Z,44.5
2018-09-04T16:25:03.464Z,44.6
2018-09-04T16:25:52.969Z,44.5
2018-09-04T16:26:43.514Z,44.5
2018-09-04T16:27:35.128Z,44.5
2018-09-04T16:28:23.865Z,44.5
2018-09-04T16:29:14.999Z,44.5
2018-09-04T16:30:19.633Z,44.5
2018-09-04T16:30:54.411Z,44.5
2018-09-04T16:31:44.151Z,44.5
2018-09-04T16:32:34.746Z,44.5
2018-09-04T16:33:24.329Z,44.5
2018-09-04T16:34:15.435Z,44.5
2018-09-04T16:35:06.081Z,44.5
2018-09-04T16:35:54.974Z,44.4
2018-09-04T16:36:59.565Z,44.5
2018-09-04T16:37:36.247Z,44.4
2018-09-04T16:38:24.994Z,44.4
2018-09-04T16:39:14.360Z,44.4
2018-09-04T16:40:04.626Z,44.4
2018-09-04T16:40:55.760Z,44.4
2018-09-04T16:41:44.085Z,44.4
2018-09-04T16:42:35.898Z,44.4
2018-09-04T16:43:25.118Z,44.4
2018-09-04T16:44:29.788Z,44.4
2018-09-04T16:45:05.267Z,44.4
2018-09-04T16:45:55.111Z,44.4
2018-09-04T16:46:45.721Z,44.4
2018-09-04T16:47:34.930Z,44.4
2018-09-04T16:48:25.879Z,44.4
2018-09-04T16:49:29.868Z,44.4
2018-09-04T16:50:05.611Z,44.4
2018-09-04T16:50:55.706Z,44.4
2018-09-04T16:51:46.561Z,44.4
2018-09-04T16:52:36.351Z,44.4
2018-09-04T16:53:26.154Z,44.4
2018-09-04T16:54:16.504Z,44.4
2018-09-04T16:55:06.543Z,44.4
2018-09-04T16:55:55.302Z,44.4
2018-09-04T16:56:46.177Z,44.4
2018-09-04T16:57:36.816Z,44.4
2018-09-04T16:58:26.816Z,44.4
2018-09-04T16:59:15.540Z,44.4
2018-09-04T17:00:06.423Z,44.4
2018-09-04T17:00:55.995Z,44.3
2018-09-04T17:01:47.125Z,44.3
2018-09-04T17:02:36.617Z,44.3
2018-09-04T17:03:26.480Z,44.3
2018-09-04T17:04:31.783Z,44.3
2018-09-04T17:05:07.700Z,44.3
2018-09-04T17:05:57.398Z,44.3
2018-09-04T17:06:46.722Z,44.3
2018-09-04T17:07:37.512Z,44.3
2018-09-04T17:08:27.417Z,44.3
2018-09-04T17:09:17.089Z,44.3
2018-09-04T17:10:06.688Z,44.3
2018-09-04T17:10:57.355Z,44.3
2018-09-04T17:11:47.183Z,44.3
2018-09-04T17:12:37.686Z,44.3
2018-09-04T17:13:27.537Z,44.3
2018-09-04T17:14:17.978Z,44.3
2018-09-04T17:15:07.053Z,44.3
2018-09-04T17:16:12.011Z,44.3
2018-09-04T17:16:47.190Z,44.3
2018-09-04T17:17:52.963Z,44.3
2018-09-04T17:18:27.075Z,44.3
2018-09-04T17:19:18.378Z,44.3
2018-09-04T17:20:07.765Z,44.3
2018-09-04T17:20:57.877Z,44.3
2018-09-04T17:21:48.980Z,44.3
2018-09-04T17:22:37.943Z,44.2
2018-09-04T17:23:28.838Z,44.3
2018-09-04T17:24:18.329Z,44.3
2018-09-04T17:25:08.439Z,44.2
2018-09-04T17:25:58.571Z,44.2
2018-09-04T17:27:02.860Z,44.2
2018-09-04T17:27:38.609Z,44.2
2018-09-04T17:28:29.258Z,44.2
2018-09-04T17:29:19.042Z,44.2
2018-09-04T17:30:08.270Z,44.2
2018-09-04T17:30:59.938Z,44.2
2018-09-04T17:32:03.601Z,44.2
2018-09-04T17:32:39.233Z,44.2
2018-09-04T17:33:28.171Z,44.2
2018-09-04T17:34:17.884Z,44.2
2018-09-04T17:35:08.282Z,44.2
2018-09-04T17:35:58.356Z,44.2
2018-09-04T17:36:48.407Z,44.2
2018-09-04T17:37:38.411Z,44.1
2018-09-04T17:38:28.779Z,44.1
2018-09-04T17:39:18.602Z,44.1
2018-09-04T17:40:23.309Z,44.1
2018-09-04T17:40:58.746Z,44.1
2018-09-04T17:41:49.075Z,44.1
2018-09-04T17:42:39.087Z,44.1
2018-09-04T17:43:28.881Z,44.1
2018-09-04T17:44:18.406Z,44.1
2018-09-04T17:45:09.323Z,44.1
2018-09-04T17:45:58.536Z,44.1
2018-09-04T17:46:48.893Z,44.1
2018-09-04T17:47:39.762Z,44.1
2018-09-04T17:48:29.372Z,44.1
2018-09-04T17:49:20.066Z,44.1
2018-09-04T17:50:09.179Z,44.1
2018-09-04T17:50:59.781Z,44.1
2018-09-04T17:51:49.558Z,44.1
2018-09-04T17:52:39.920Z,44.1
2018-09-04T17:53:29.441Z,44.1
2018-09-04T17:54:20.298Z,44.1
2018-09-04T17:55:09.861Z,44.1
2018-09-04T17:55:59.905Z,44.1
2018-09-04T17:56:49.689Z,44.1
2018-09-04T17:57:39.753Z,44.1
2018-09-04T17:58:30.092Z,44.1
2018-09-04T17:59:20.167Z,44.1
2018-09-04T18:00:10.229Z,44
2018-09-04T18:01:01.330Z,44
2018-09-04T18:01:50.625Z,44
2018-09-04T18:02:40.669Z,44.1
2018-09-04T18:03:30.502Z,44
2018-09-04T18:04:20.272Z,44
2018-09-04T18:05:10.366Z,44
2018-09-04T18:06:00.975Z,44
2018-09-04T18:06:50.451Z,44
2018-09-04T18:07:40.839Z,44
2018-09-04T18:08:30.931Z,44
2018-09-04T18:09:20.742Z,44
2018-09-04T18:10:11.075Z,44
2018-09-04T18:11:00.861Z,44
2018-09-04T18:11:51.231Z,44